sensor_id;sensor_type;location;lat;lon;timestamp;P1;durP1;ratioP1;P2;durP2;ratioP2
54599;SDS011;40500;51.084;16.958;2023-04-06T00:01:32;38.00;;;19.90;;
54599;SDS011;40500;51.084;16.958;2023-04-06T00:04:00;31.00;;;18.00;;
54599;SDS011;40500;51.084;16.958;2023-04-06T00:06:28;32.10;;;17.70;;
54599;SDS011;40500;51.084;16.958;2023-04-06T00:08:56;43.40;;;21.80;;
54599;SDS011;40500;51.084;16.958;2023-04-06T00:11:24;33.30;;;15.40;;
54599;SDS011;40500;51.084;16.958;2023-04-06T00:13:52;38.60;;;19.90;;
54599;SDS011;40500;51.084;16.958;2023-04-06T00:16:19;35.80;;;20.10;;
54599;SDS011;40500;51.084;16.958;2023-04-06T00:18:50;36.10;;;19.00;;
54599;SDS011;40500;51.084;16.958;2023-04-06T00:21:18;43.20;;;20.10;;
54599;SDS011;40500;51.084;16.958;2023-04-06T00:23:46;47.10;;;20.60;;
54599;SDS011;40500;51.084;16.958;2023-04-06T00:26:13;42.90;;;22.40;;
54599;SDS011;40500;51.084;16.958;2023-04-06T00:28:43;38.50;;;20.40;;
54599;SDS011;40500;51.084;16.958;2023-04-06T00:31:11;39.90;;;20.30;;
54599;SDS011;40500;51.084;16.958;2023-04-06T00:33:38;51.60;;;25.40;;
54599;SDS011;40500;51.084;16.958;2023-04-06T00:36:06;49.00;;;22.70;;
54599;SDS011;40500;51.084;16.958;2023-04-06T00:38:34;41.60;;;20.40;;
54599;SDS011;40500;51.084;16.958;2023-04-06T00:41:02;36.20;;;20.00;;
54599;SDS011;40500;51.084;16.958;2023-04-06T00:43:30;43.20;;;21.30;;
54599;SDS011;40500;51.084;16.958;2023-04-06T00:45:58;51.20;;;24.30;;
54599;SDS011;40500;51.084;16.958;2023-04-06T00:48:26;43.50;;;20.30;;
54599;SDS011;40500;51.084;16.958;2023-04-06T00:50:53;37.70;;;19.90;;
54599;SDS011;40500;51.084;16.958;2023-04-06T00:53:21;44.00;;;22.50;;
54599;SDS011;40500;51.084;16.958;2023-04-06T00:55:50;30.20;;;15.20;;
54599;SDS011;40500;51.084;16.958;2023-04-06T00:58:18;24.80;;;13.20;;
54599;SDS011;40500;51.084;16.958;2023-04-06T01:00:50;43.20;;;20.40;;
54599;SDS011;40500;51.084;16.958;2023-04-06T01:03:19;45.20;;;22.70;;
54599;SDS011;40500;51.084;16.958;2023-04-06T01:05:47;46.30;;;24.00;;
54599;SDS011;40500;51.084;16.958;2023-04-06T01:08:19;38.80;;;20.50;;
54599;SDS011;40500;51.084;16.958;2023-04-06T01:10:48;35.70;;;17.60;;
54599;SDS011;40500;51.084;16.958;2023-04-06T01:13:23;35.10;;;17.30;;
54599;SDS011;40500;51.084;16.958;2023-04-06T01:15:56;34.60;;;17.50;;
54599;SDS011;40500;51.084;16.958;2023-04-06T01:18:29;38.70;;;20.90;;
54599;SDS011;40500;51.084;16.958;2023-04-06T01:21:08;36.50;;;17.90;;
54599;SDS011;40500;51.084;16.958;2023-04-06T01:23:47;34.20;;;17.10;;
54599;SDS011;40500;51.084;16.958;2023-04-06T01:26:18;49.80;;;25.60;;
54599;SDS011;40500;51.084;16.958;2023-04-06T01:28:46;40.10;;;20.60;;
54599;SDS011;40500;51.084;16.958;2023-04-06T01:31:24;51.10;;;23.70;;
54599;SDS011;40500;51.084;16.958;2023-04-06T01:33:52;41.10;;;21.60;;
54599;SDS011;40500;51.084;16.958;2023-04-06T01:36:23;30.40;;;17.60;;
54599;SDS011;40500;51.084;16.958;2023-04-06T01:38:57;33.90;;;15.90;;
54599;SDS011;40500;51.084;16.958;2023-04-06T01:41:32;50.70;;;24.00;;
54599;SDS011;40500;51.084;16.958;2023-04-06T01:43:59;47.20;;;23.10;;
54599;SDS011;40500;51.084;16.958;2023-04-06T01:46:29;45.00;;;22.90;;
54599;SDS011;40500;51.084;16.958;2023-04-06T01:48:58;46.50;;;23.90;;
54599;SDS011;40500;51.084;16.958;2023-04-06T01:51:37;45.00;;;20.50;;
54599;SDS011;40500;51.084;16.958;2023-04-06T01:54:06;40.70;;;21.30;;
54599;SDS011;40500;51.084;16.958;2023-04-06T01:56:54;40.70;;;20.20;;
54599;SDS011;40500;51.084;16.958;2023-04-06T01:59:27;47.40;;;23.60;;
54599;SDS011;40500;51.084;16.958;2023-04-06T02:01:55;50.10;;;23.80;;
54599;SDS011;40500;51.084;16.958;2023-04-06T02:04:24;44.70;;;19.70;;
54599;SDS011;40500;51.084;16.958;2023-04-06T02:06:57;34.10;;;19.20;;
54599;SDS011;40500;51.084;16.958;2023-04-06T02:09:25;49.00;;;22.80;;
54599;SDS011;40500;51.084;16.958;2023-04-06T02:11:53;54.20;;;23.80;;
54599;SDS011;40500;51.084;16.958;2023-04-06T02:14:23;41.00;;;20.30;;
54599;SDS011;40500;51.084;16.958;2023-04-06T02:16:53;48.10;;;23.00;;
54599;SDS011;40500;51.084;16.958;2023-04-06T02:19:22;47.40;;;23.70;;
54599;SDS011;40500;51.084;16.958;2023-04-06T02:21:49;50.40;;;24.50;;
54599;SDS011;40500;51.084;16.958;2023-04-06T02:24:17;52.40;;;24.50;;
54599;SDS011;40500;51.084;16.958;2023-04-06T02:26:45;33.70;;;19.40;;
54599;SDS011;40500;51.084;16.958;2023-04-06T02:29:12;43.70;;;21.80;;
54599;SDS011;40500;51.084;16.958;2023-04-06T02:31:40;33.00;;;16.80;;
54599;SDS011;40500;51.084;16.958;2023-04-06T02:34:08;27.30;;;16.30;;
54599;SDS011;40500;51.084;16.958;2023-04-06T02:36:41;26.90;;;14.60;;
54599;SDS011;40500;51.084;16.958;2023-04-06T02:39:09;33.50;;;17.80;;
54599;SDS011;40500;51.084;16.958;2023-04-06T02:41:38;39.60;;;19.00;;
54599;SDS011;40500;51.084;16.958;2023-04-06T02:44:06;35.10;;;18.20;;
54599;SDS011;40500;51.084;16.958;2023-04-06T02:46:41;45.40;;;22.30;;
54599;SDS011;40500;51.084;16.958;2023-04-06T02:49:08;39.50;;;20.40;;
54599;SDS011;40500;51.084;16.958;2023-04-06T02:51:37;53.70;;;24.50;;
54599;SDS011;40500;51.084;16.958;2023-04-06T02:54:13;47.50;;;23.90;;
54599;SDS011;40500;51.084;16.958;2023-04-06T02:56:41;41.50;;;20.60;;
54599;SDS011;40500;51.084;16.958;2023-04-06T02:59:09;37.20;;;18.60;;
54599;SDS011;40500;51.084;16.958;2023-04-06T03:01:37;42.60;;;20.60;;
54599;SDS011;40500;51.084;16.958;2023-04-06T03:04:05;28.60;;;16.20;;
54599;SDS011;40500;51.084;16.958;2023-04-06T03:06:33;47.10;;;22.00;;
54599;SDS011;40500;51.084;16.958;2023-04-06T03:09:07;38.80;;;19.80;;
54599;SDS011;40500;51.084;16.958;2023-04-06T03:11:35;35.40;;;18.30;;
54599;SDS011;40500;51.084;16.958;2023-04-06T03:14:03;42.10;;;18.20;;
54599;SDS011;40500;51.084;16.958;2023-04-06T03:16:31;43.20;;;19.80;;
54599;SDS011;40500;51.084;16.958;2023-04-06T03:19:00;37.40;;;18.00;;
54599;SDS011;40500;51.084;16.958;2023-04-06T03:21:28;52.30;;;22.80;;
54599;SDS011;40500;51.084;16.958;2023-04-06T03:23:55;42.90;;;21.20;;
54599;SDS011;40500;51.084;16.958;2023-04-06T03:26:23;40.30;;;20.40;;
54599;SDS011;40500;51.084;16.958;2023-04-06T03:28:51;51.80;;;24.00;;
54599;SDS011;40500;51.084;16.958;2023-04-06T03:31:21;48.80;;;23.40;;
54599;SDS011;40500;51.084;16.958;2023-04-06T03:33:56;57.10;;;25.10;;
54599;SDS011;40500;51.084;16.958;2023-04-06T03:36:31;56.00;;;24.80;;
54599;SDS011;40500;51.084;16.958;2023-04-06T03:39:01;40.60;;;20.40;;
54599;SDS011;40500;51.084;16.958;2023-04-06T03:41:31;44.80;;;23.30;;
54599;SDS011;40500;51.084;16.958;2023-04-06T03:44:11;36.60;;;18.20;;
54599;SDS011;40500;51.084;16.958;2023-04-06T03:46:39;36.90;;;19.40;;
54599;SDS011;40500;51.084;16.958;2023-04-06T03:49:07;32.00;;;16.60;;
54599;SDS011;40500;51.084;16.958;2023-04-06T03:51:35;45.20;;;22.90;;
54599;SDS011;40500;51.084;16.958;2023-04-06T03:54:03;54.50;;;25.20;;
54599;SDS011;40500;51.084;16.958;2023-04-06T03:56:31;50.20;;;24.80;;
54599;SDS011;40500;51.084;16.958;2023-04-06T03:58:58;37.90;;;19.90;;
54599;SDS011;40500;51.084;16.958;2023-04-06T04:01:26;60.50;;;29.20;;
54599;SDS011;40500;51.084;16.958;2023-04-06T04:03:55;80.00;;;34.50;;
54599;SDS011;40500;51.084;16.958;2023-04-06T04:06:22;70.80;;;28.60;;
54599;SDS011;40500;51.084;16.958;2023-04-06T04:08:51;64.30;;;28.80;;
54599;SDS011;40500;51.084;16.958;2023-04-06T04:11:19;57.20;;;27.70;;
54599;SDS011;40500;51.084;16.958;2023-04-06T04:13:49;56.80;;;27.00;;
54599;SDS011;40500;51.084;16.958;2023-04-06T04:16:16;63.80;;;28.60;;
54599;SDS011;40500;51.084;16.958;2023-04-06T04:18:44;69.20;;;34.50;;
54599;SDS011;40500;51.084;16.958;2023-04-06T04:21:13;86.60;;;32.90;;
54599;SDS011;40500;51.084;16.958;2023-04-06T04:23:41;58.00;;;28.30;;
54599;SDS011;40500;51.084;16.958;2023-04-06T04:26:08;61.90;;;28.80;;
54599;SDS011;40500;51.084;16.958;2023-04-06T04:28:36;78.80;;;31.40;;
54599;SDS011;40500;51.084;16.958;2023-04-06T04:31:04;77.50;;;33.50;;
54599;SDS011;40500;51.084;16.958;2023-04-06T04:33:33;78.60;;;35.00;;
54599;SDS011;40500;51.084;16.958;2023-04-06T04:36:04;68.00;;;30.00;;
54599;SDS011;40500;51.084;16.958;2023-04-06T04:38:37;72.60;;;35.70;;
54599;SDS011;40500;51.084;16.958;2023-04-06T04:41:05;79.40;;;35.00;;
54599;SDS011;40500;51.084;16.958;2023-04-06T04:43:34;63.10;;;31.40;;
54599;SDS011;40500;51.084;16.958;2023-04-06T04:46:02;75.50;;;35.10;;
54599;SDS011;40500;51.084;16.958;2023-04-06T04:48:35;86.80;;;35.60;;
54599;SDS011;40500;51.084;16.958;2023-04-06T04:51:05;72.10;;;32.30;;
54599;SDS011;40500;51.084;16.958;2023-04-06T04:53:51;71.40;;;31.40;;
54599;SDS011;40500;51.084;16.958;2023-04-06T04:56:22;80.70;;;33.20;;
54599;SDS011;40500;51.084;16.958;2023-04-06T04:58:53;63.00;;;30.40;;
54599;SDS011;40500;51.084;16.958;2023-04-06T05:01:21;67.40;;;34.00;;
54599;SDS011;40500;51.084;16.958;2023-04-06T05:03:50;51.20;;;26.80;;
54599;SDS011;40500;51.084;16.958;2023-04-06T05:06:17;59.80;;;28.00;;
54599;SDS011;40500;51.084;16.958;2023-04-06T05:08:45;58.20;;;28.60;;
54599;SDS011;40500;51.084;16.958;2023-04-06T05:11:13;63.50;;;31.70;;
54599;SDS011;40500;51.084;16.958;2023-04-06T05:13:44;68.70;;;33.80;;
54599;SDS011;40500;51.084;16.958;2023-04-06T05:16:16;61.00;;;30.80;;
54599;SDS011;40500;51.084;16.958;2023-04-06T05:18:44;66.90;;;34.40;;
54599;SDS011;40500;51.084;16.958;2023-04-06T05:21:14;68.80;;;34.40;;
54599;SDS011;40500;51.084;16.958;2023-04-06T05:23:54;69.00;;;32.00;;
54599;SDS011;40500;51.084;16.958;2023-04-06T05:26:21;67.80;;;33.10;;
54599;SDS011;40500;51.084;16.958;2023-04-06T05:28:51;68.30;;;33.90;;
54599;SDS011;40500;51.084;16.958;2023-04-06T05:31:19;66.10;;;32.20;;
54599;SDS011;40500;51.084;16.958;2023-04-06T05:33:49;70.20;;;34.90;;
54599;SDS011;40500;51.084;16.958;2023-04-06T05:36:27;70.70;;;34.90;;
54599;SDS011;40500;51.084;16.958;2023-04-06T05:38:55;79.90;;;36.40;;
54599;SDS011;40500;51.084;16.958;2023-04-06T05:41:31;66.20;;;35.40;;
54599;SDS011;40500;51.084;16.958;2023-04-06T05:43:59;65.90;;;34.30;;
54599;SDS011;40500;51.084;16.958;2023-04-06T05:46:28;60.20;;;31.80;;
54599;SDS011;40500;51.084;16.958;2023-04-06T05:48:57;60.50;;;29.50;;
54599;SDS011;40500;51.084;16.958;2023-04-06T05:51:27;54.60;;;29.30;;
54599;SDS011;40500;51.084;16.958;2023-04-06T05:53:54;65.90;;;33.20;;
54599;SDS011;40500;51.084;16.958;2023-04-06T05:56:22;55.70;;;29.80;;
54599;SDS011;40500;51.084;16.958;2023-04-06T05:58:51;58.30;;;30.00;;
54599;SDS011;40500;51.084;16.958;2023-04-06T06:01:24;62.70;;;31.20;;
54599;SDS011;40500;51.084;16.958;2023-04-06T06:03:51;59.20;;;29.90;;
54599;SDS011;40500;51.084;16.958;2023-04-06T06:06:19;51.20;;;27.80;;
54599;SDS011;40500;51.084;16.958;2023-04-06T06:09:03;87.20;;;39.40;;
54599;SDS011;40500;51.084;16.958;2023-04-06T06:11:33;73.00;;;36.90;;
54599;SDS011;40500;51.084;16.958;2023-04-06T06:14:01;55.60;;;27.40;;
54599;SDS011;40500;51.084;16.958;2023-04-06T06:16:33;49.30;;;28.10;;
54599;SDS011;40500;51.084;16.958;2023-04-06T06:19:02;62.70;;;31.60;;
54599;SDS011;40500;51.084;16.958;2023-04-06T06:21:31;53.80;;;29.00;;
54599;SDS011;40500;51.084;16.958;2023-04-06T06:23:59;54.90;;;30.80;;
54599;SDS011;40500;51.084;16.958;2023-04-06T06:26:26;57.20;;;32.20;;
54599;SDS011;40500;51.084;16.958;2023-04-06T06:28:54;61.80;;;32.40;;
54599;SDS011;40500;51.084;16.958;2023-04-06T06:31:23;67.10;;;35.40;;
54599;SDS011;40500;51.084;16.958;2023-04-06T06:33:50;69.00;;;36.60;;
54599;SDS011;40500;51.084;16.958;2023-04-06T06:36:18;65.90;;;35.60;;
54599;SDS011;40500;51.084;16.958;2023-04-06T06:38:46;54.40;;;30.60;;
54599;SDS011;40500;51.084;16.958;2023-04-06T06:41:16;48.00;;;28.40;;
54599;SDS011;40500;51.084;16.958;2023-04-06T06:43:44;57.20;;;32.40;;
54599;SDS011;40500;51.084;16.958;2023-04-06T06:46:12;53.50;;;31.00;;
54599;SDS011;40500;51.084;16.958;2023-04-06T06:48:39;43.50;;;26.10;;
54599;SDS011;40500;51.084;16.958;2023-04-06T06:51:07;59.80;;;34.40;;
54599;SDS011;40500;51.084;16.958;2023-04-06T06:53:35;59.10;;;29.80;;
54599;SDS011;40500;51.084;16.958;2023-04-06T06:56:03;56.00;;;29.80;;
54599;SDS011;40500;51.084;16.958;2023-04-06T06:58:32;46.40;;;26.20;;
54599;SDS011;40500;51.084;16.958;2023-04-06T07:00:59;49.80;;;28.80;;
54599;SDS011;40500;51.084;16.958;2023-04-06T07:03:29;39.10;;;24.90;;
54599;SDS011;40500;51.084;16.958;2023-04-06T07:05:57;34.60;;;22.80;;
54599;SDS011;40500;51.084;16.958;2023-04-06T07:08:24;39.20;;;24.40;;
54599;SDS011;40500;51.084;16.958;2023-04-06T07:10:52;40.70;;;24.60;;
54599;SDS011;40500;51.084;16.958;2023-04-06T07:13:22;52.10;;;31.10;;
54599;SDS011;40500;51.084;16.958;2023-04-06T07:15:52;37.80;;;25.40;;
54599;SDS011;40500;51.084;16.958;2023-04-06T07:18:20;38.30;;;23.80;;
54599;SDS011;40500;51.084;16.958;2023-04-06T07:20:48;36.50;;;23.20;;
54599;SDS011;40500;51.084;16.958;2023-04-06T07:23:16;43.10;;;25.20;;
54599;SDS011;40500;51.084;16.958;2023-04-06T07:25:44;36.70;;;22.60;;
54599;SDS011;40500;51.084;16.958;2023-04-06T07:28:12;37.20;;;22.80;;
54599;SDS011;40500;51.084;16.958;2023-04-06T07:30:40;35.10;;;22.40;;
54599;SDS011;40500;51.084;16.958;2023-04-06T07:33:09;39.30;;;22.00;;
54599;SDS011;40500;51.084;16.958;2023-04-06T07:35:37;41.20;;;26.20;;
54599;SDS011;40500;51.084;16.958;2023-04-06T07:38:05;35.50;;;22.70;;
54599;SDS011;40500;51.084;16.958;2023-04-06T07:40:33;43.10;;;25.00;;
54599;SDS011;40500;51.084;16.958;2023-04-06T07:43:01;52.80;;;29.70;;
54599;SDS011;40500;51.084;16.958;2023-04-06T07:45:29;40.10;;;23.50;;
54599;SDS011;40500;51.084;16.958;2023-04-06T07:47:57;32.30;;;20.20;;
54599;SDS011;40500;51.084;16.958;2023-04-06T07:50:26;37.00;;;23.00;;
54599;SDS011;40500;51.084;16.958;2023-04-06T07:52:54;32.90;;;22.20;;
54599;SDS011;40500;51.084;16.958;2023-04-06T07:55:22;32.20;;;21.80;;
54599;SDS011;40500;51.084;16.958;2023-04-06T07:57:50;39.00;;;22.40;;
54599;SDS011;40500;51.084;16.958;2023-04-06T08:00:18;36.60;;;22.30;;
54599;SDS011;40500;51.084;16.958;2023-04-06T08:02:47;37.60;;;24.30;;
54599;SDS011;40500;51.084;16.958;2023-04-06T08:05:15;33.40;;;21.10;;
54599;SDS011;40500;51.084;16.958;2023-04-06T08:07:44;32.80;;;21.30;;
54599;SDS011;40500;51.084;16.958;2023-04-06T08:10:11;35.20;;;21.70;;
54599;SDS011;40500;51.084;16.958;2023-04-06T08:12:39;25.00;;;16.40;;
54599;SDS011;40500;51.084;16.958;2023-04-06T08:15:07;27.00;;;18.10;;
54599;SDS011;40500;51.084;16.958;2023-04-06T08:17:35;27.10;;;16.90;;
54599;SDS011;40500;51.084;16.958;2023-04-06T08:20:03;25.60;;;15.70;;
54599;SDS011;40500;51.084;16.958;2023-04-06T08:22:32;25.10;;;14.50;;
54599;SDS011;40500;51.084;16.958;2023-04-06T08:25:00;22.40;;;14.50;;
54599;SDS011;40500;51.084;16.958;2023-04-06T08:27:27;28.60;;;14.50;;
54599;SDS011;40500;51.084;16.958;2023-04-06T08:29:55;21.60;;;13.60;;
54599;SDS011;40500;51.084;16.958;2023-04-06T08:32:23;22.50;;;14.80;;
54599;SDS011;40500;51.084;16.958;2023-04-06T08:34:53;25.80;;;16.00;;
54599;SDS011;40500;51.084;16.958;2023-04-06T08:37:21;23.30;;;13.60;;
54599;SDS011;40500;51.084;16.958;2023-04-06T08:39:49;22.40;;;12.70;;
54599;SDS011;40500;51.084;16.958;2023-04-06T08:42:20;19.20;;;12.80;;
54599;SDS011;40500;51.084;16.958;2023-04-06T08:44:49;16.80;;;11.70;;
54599;SDS011;40500;51.084;16.958;2023-04-06T08:47:18;20.10;;;12.10;;
54599;SDS011;40500;51.084;16.958;2023-04-06T08:49:50;16.80;;;10.10;;
54599;SDS011;40500;51.084;16.958;2023-04-06T08:52:20;19.80;;;11.80;;
54599;SDS011;40500;51.084;16.958;2023-04-06T08:54:47;14.70;;;9.10;;
54599;SDS011;40500;51.084;16.958;2023-04-06T08:57:15;17.50;;;9.90;;
54599;SDS011;40500;51.084;16.958;2023-04-06T08:59:45;13.20;;;8.90;;
54599;SDS011;40500;51.084;16.958;2023-04-06T09:02:15;13.80;;;9.30;;
54599;SDS011;40500;51.084;16.958;2023-04-06T09:04:46;18.70;;;10.20;;
54599;SDS011;40500;51.084;16.958;2023-04-06T09:07:15;14.70;;;8.90;;
54599;SDS011;40500;51.084;16.958;2023-04-06T09:09:43;15.40;;;8.50;;
54599;SDS011;40500;51.084;16.958;2023-04-06T09:12:22;14.80;;;9.10;;
54599;SDS011;40500;51.084;16.958;2023-04-06T09:14:50;13.60;;;7.80;;
54599;SDS011;40500;51.084;16.958;2023-04-06T09:17:21;17.50;;;8.80;;
54599;SDS011;40500;51.084;16.958;2023-04-06T09:19:50;18.30;;;8.30;;
54599;SDS011;40500;51.084;16.958;2023-04-06T09:22:18;15.30;;;9.30;;
54599;SDS011;40500;51.084;16.958;2023-04-06T09:24:47;14.40;;;7.70;;
54599;SDS011;40500;51.084;16.958;2023-04-06T09:27:18;12.90;;;8.20;;
54599;SDS011;40500;51.084;16.958;2023-04-06T09:30:02;14.90;;;9.00;;
54599;SDS011;40500;51.084;16.958;2023-04-06T09:32:31;13.00;;;7.70;;
54599;SDS011;40500;51.084;16.958;2023-04-06T09:35:11;13.20;;;8.30;;
54599;SDS011;40500;51.084;16.958;2023-04-06T09:37:39;13.40;;;7.90;;
54599;SDS011;40500;51.084;16.958;2023-04-06T09:40:07;11.50;;;7.10;;
54599;SDS011;40500;51.084;16.958;2023-04-06T09:42:35;13.90;;;7.80;;
54599;SDS011;40500;51.084;16.958;2023-04-06T09:45:04;10.60;;;7.80;;
54599;SDS011;40500;51.084;16.958;2023-04-06T09:47:33;9.80;;;7.10;;
54599;SDS011;40500;51.084;16.958;2023-04-06T09:50:03;7.10;;;5.30;;
54599;SDS011;40500;51.084;16.958;2023-04-06T09:52:39;8.70;;;6.20;;
54599;SDS011;40500;51.084;16.958;2023-04-06T09:55:09;8.80;;;5.90;;
54599;SDS011;40500;51.084;16.958;2023-04-06T09:57:40;12.80;;;6.70;;
54599;SDS011;40500;51.084;16.958;2023-04-06T10:00:13;9.20;;;5.10;;
54599;SDS011;40500;51.084;16.958;2023-04-06T10:02:48;6.60;;;5.00;;
54599;SDS011;40500;51.084;16.958;2023-04-06T10:05:25;9.20;;;5.20;;
54599;SDS011;40500;51.084;16.958;2023-04-06T10:08:01;10.30;;;6.20;;
54599;SDS011;40500;51.084;16.958;2023-04-06T10:10:32;7.20;;;4.90;;
54599;SDS011;40500;51.084;16.958;2023-04-06T10:13:00;6.40;;;4.30;;
54599;SDS011;40500;51.084;16.958;2023-04-06T10:15:28;6.30;;;4.00;;
54599;SDS011;40500;51.084;16.958;2023-04-06T10:17:57;8.20;;;4.90;;
54599;SDS011;40500;51.084;16.958;2023-04-06T10:20:27;7.40;;;5.80;;
54599;SDS011;40500;51.084;16.958;2023-04-06T10:22:59;9.70;;;5.90;;
54599;SDS011;40500;51.084;16.958;2023-04-06T10:25:35;8.10;;;5.20;;
54599;SDS011;40500;51.084;16.958;2023-04-06T10:28:05;8.80;;;5.50;;
54599;SDS011;40500;51.084;16.958;2023-04-06T10:30:34;6.40;;;4.80;;
54599;SDS011;40500;51.084;16.958;2023-04-06T10:33:13;7.00;;;4.70;;
54599;SDS011;40500;51.084;16.958;2023-04-06T10:35:41;8.90;;;4.80;;
54599;SDS011;40500;51.084;16.958;2023-04-06T10:38:09;8.10;;;4.40;;
54599;SDS011;40500;51.084;16.958;2023-04-06T10:40:39;8.50;;;5.10;;
54599;SDS011;40500;51.084;16.958;2023-04-06T10:43:08;8.00;;;5.00;;
54599;SDS011;40500;51.084;16.958;2023-04-06T10:45:37;8.10;;;4.80;;
54599;SDS011;40500;51.084;16.958;2023-04-06T10:48:15;8.00;;;4.60;;
54599;SDS011;40500;51.084;16.958;2023-04-06T10:50:46;7.80;;;4.00;;
54599;SDS011;40500;51.084;16.958;2023-04-06T10:53:20;5.00;;;3.90;;
54599;SDS011;40500;51.084;16.958;2023-04-06T10:55:49;7.20;;;5.10;;
54599;SDS011;40500;51.084;16.958;2023-04-06T10:58:18;5.60;;;3.60;;
54599;SDS011;40500;51.084;16.958;2023-04-06T11:00:46;6.40;;;4.30;;
54599;SDS011;40500;51.084;16.958;2023-04-06T11:03:17;4.30;;;3.50;;
54599;SDS011;40500;51.084;16.958;2023-04-06T11:05:45;6.80;;;3.40;;
54599;SDS011;40500;51.084;16.958;2023-04-06T11:08:24;3.40;;;2.50;;
54599;SDS011;40500;51.084;16.958;2023-04-06T11:11:04;6.70;;;4.00;;
54599;SDS011;40500;51.084;16.958;2023-04-06T11:13:40;8.70;;;5.20;;
54599;SDS011;40500;51.084;16.958;2023-04-06T11:16:12;7.10;;;4.40;;
54599;SDS011;40500;51.084;16.958;2023-04-06T11:18:48;5.80;;;4.00;;
54599;SDS011;40500;51.084;16.958;2023-04-06T11:21:30;6.90;;;3.40;;
54599;SDS011;40500;51.084;16.958;2023-04-06T11:24:06;6.80;;;4.90;;
54599;SDS011;40500;51.084;16.958;2023-04-06T11:26:39;11.50;;;6.80;;
54599;SDS011;40500;51.084;16.958;2023-04-06T11:29:08;9.80;;;5.30;;
54599;SDS011;40500;51.084;16.958;2023-04-06T11:31:42;8.00;;;5.20;;
54599;SDS011;40500;51.084;16.958;2023-04-06T11:34:13;8.20;;;4.30;;
54599;SDS011;40500;51.084;16.958;2023-04-06T11:36:44;7.10;;;5.00;;
54599;SDS011;40500;51.084;16.958;2023-04-06T11:39:12;7.80;;;5.10;;
54599;SDS011;40500;51.084;16.958;2023-04-06T11:41:47;7.20;;;4.90;;
54599;SDS011;40500;51.084;16.958;2023-04-06T11:44:15;7.60;;;4.90;;
54599;SDS011;40500;51.084;16.958;2023-04-06T11:46:53;4.40;;;3.60;;
54599;SDS011;40500;51.084;16.958;2023-04-06T11:49:26;6.30;;;4.10;;
54599;SDS011;40500;51.084;16.958;2023-04-06T11:51:55;6.20;;;4.30;;
54599;SDS011;40500;51.084;16.958;2023-04-06T11:54:33;5.90;;;4.50;;
54599;SDS011;40500;51.084;16.958;2023-04-06T11:57:01;7.30;;;5.10;;
54599;SDS011;40500;51.084;16.958;2023-04-06T11:59:30;6.70;;;4.90;;
54599;SDS011;40500;51.084;16.958;2023-04-06T12:01:58;7.80;;;5.30;;
54599;SDS011;40500;51.084;16.958;2023-04-06T12:04:25;7.90;;;4.50;;
54599;SDS011;40500;51.084;16.958;2023-04-06T12:06:53;6.30;;;4.80;;
54599;SDS011;40500;51.084;16.958;2023-04-06T12:09:21;9.90;;;4.50;;
54599;SDS011;40500;51.084;16.958;2023-04-06T12:11:49;6.50;;;4.70;;
54599;SDS011;40500;51.084;16.958;2023-04-06T12:14:17;8.50;;;5.40;;
54599;SDS011;40500;51.084;16.958;2023-04-06T12:16:44;6.40;;;4.70;;
54599;SDS011;40500;51.084;16.958;2023-04-06T12:19:12;7.90;;;4.70;;
54599;SDS011;40500;51.084;16.958;2023-04-06T12:21:40;6.20;;;5.00;;
54599;SDS011;40500;51.084;16.958;2023-04-06T12:24:08;6.60;;;4.80;;
54599;SDS011;40500;51.084;16.958;2023-04-06T12:26:36;7.50;;;4.90;;
54599;SDS011;40500;51.084;16.958;2023-04-06T12:29:04;9.40;;;6.20;;
54599;SDS011;40500;51.084;16.958;2023-04-06T12:31:33;7.40;;;5.50;;
54599;SDS011;40500;51.084;16.958;2023-04-06T12:34:02;10.00;;;4.70;;
54599;SDS011;40500;51.084;16.958;2023-04-06T12:36:30;5.50;;;4.30;;
54599;SDS011;40500;51.084;16.958;2023-04-06T12:38:58;7.40;;;4.80;;
54599;SDS011;40500;51.084;16.958;2023-04-06T12:41:27;6.30;;;4.70;;
54599;SDS011;40500;51.084;16.958;2023-04-06T12:43:55;8.30;;;5.40;;
54599;SDS011;40500;51.084;16.958;2023-04-06T12:46:25;9.30;;;6.00;;
54599;SDS011;40500;51.084;16.958;2023-04-06T12:48:53;6.60;;;5.30;;
54599;SDS011;40500;51.084;16.958;2023-04-06T12:51:21;7.30;;;5.40;;
54599;SDS011;40500;51.084;16.958;2023-04-06T12:53:49;5.70;;;4.40;;
54599;SDS011;40500;51.084;16.958;2023-04-06T12:56:18;6.90;;;5.60;;
54599;SDS011;40500;51.084;16.958;2023-04-06T12:58:50;8.50;;;5.50;;
54599;SDS011;40500;51.084;16.958;2023-04-06T13:01:18;8.70;;;5.70;;
54599;SDS011;40500;51.084;16.958;2023-04-06T13:03:47;6.80;;;5.10;;
54599;SDS011;40500;51.084;16.958;2023-04-06T13:06:15;5.30;;;4.70;;
54599;SDS011;40500;51.084;16.958;2023-04-06T13:08:42;4.50;;;3.90;;
54599;SDS011;40500;51.084;16.958;2023-04-06T13:11:10;5.80;;;5.00;;
54599;SDS011;40500;51.084;16.958;2023-04-06T13:13:38;3.70;;;3.40;;
54599;SDS011;40500;51.084;16.958;2023-04-06T13:16:07;4.10;;;3.70;;
54599;SDS011;40500;51.084;16.958;2023-04-06T13:18:35;4.20;;;3.80;;
54599;SDS011;40500;51.084;16.958;2023-04-06T13:21:04;5.90;;;4.20;;
54599;SDS011;40500;51.084;16.958;2023-04-06T13:23:32;4.90;;;3.90;;
54599;SDS011;40500;51.084;16.958;2023-04-06T13:26:01;4.80;;;4.30;;
54599;SDS011;40500;51.084;16.958;2023-04-06T13:28:29;3.90;;;3.20;;
54599;SDS011;40500;51.084;16.958;2023-04-06T13:30:58;5.30;;;3.80;;
54599;SDS011;40500;51.084;16.958;2023-04-06T13:33:28;4.60;;;3.90;;
54599;SDS011;40500;51.084;16.958;2023-04-06T13:35:56;4.00;;;3.40;;
54599;SDS011;40500;51.084;16.958;2023-04-06T13:38:24;4.50;;;3.70;;
54599;SDS011;40500;51.084;16.958;2023-04-06T13:40:52;4.70;;;3.50;;
54599;SDS011;40500;51.084;16.958;2023-04-06T13:43:20;4.30;;;3.90;;
54599;SDS011;40500;51.084;16.958;2023-04-06T13:45:51;4.50;;;3.60;;
54599;SDS011;40500;51.084;16.958;2023-04-06T13:48:22;5.00;;;4.10;;
54599;SDS011;40500;51.084;16.958;2023-04-06T13:50:50;4.00;;;3.60;;
54599;SDS011;40500;51.084;16.958;2023-04-06T13:53:18;6.70;;;3.80;;
54599;SDS011;40500;51.084;16.958;2023-04-06T13:55:52;4.50;;;4.10;;
54599;SDS011;40500;51.084;16.958;2023-04-06T13:58:20;5.70;;;4.50;;
54599;SDS011;40500;51.084;16.958;2023-04-06T14:00:48;4.10;;;3.60;;
54599;SDS011;40500;51.084;16.958;2023-04-06T14:03:16;5.90;;;4.30;;
54599;SDS011;40500;51.084;16.958;2023-04-06T14:05:44;5.30;;;4.00;;
54599;SDS011;40500;51.084;16.958;2023-04-06T14:08:12;4.80;;;4.10;;
54599;SDS011;40500;51.084;16.958;2023-04-06T14:10:40;4.40;;;4.00;;
54599;SDS011;40500;51.084;16.958;2023-04-06T14:13:08;6.10;;;4.60;;
54599;SDS011;40500;51.084;16.958;2023-04-06T14:15:37;4.10;;;3.50;;
54599;SDS011;40500;51.084;16.958;2023-04-06T14:18:05;5.50;;;5.00;;
54599;SDS011;40500;51.084;16.958;2023-04-06T14:20:33;4.50;;;4.10;;
54599;SDS011;40500;51.084;16.958;2023-04-06T14:23:03;4.90;;;4.40;;
54599;SDS011;40500;51.084;16.958;2023-04-06T14:25:31;5.40;;;4.80;;
54599;SDS011;40500;51.084;16.958;2023-04-06T14:28:00;9.80;;;4.70;;
54599;SDS011;40500;51.084;16.958;2023-04-06T14:30:29;7.00;;;5.10;;
54599;SDS011;40500;51.084;16.958;2023-04-06T14:32:57;5.80;;;5.20;;